Time;durP1;ratioP1;P1;durP2;ratioP2;P2;SDS_P1;SDS_P2;PMS_P1;PMS_P2;Temp;Humidity;BMP_temperature;BMP_pressure;BME280_temperature;BME280_humidity;BME280_pressure;Samples;Min_cycle;Max_cycle;Signal;HPM_P1;HPM_P2
2023/10/30 00:01:33;;;;;;;4.40;1.42;;;10.40;99.90;;;;;;5014217;28;20057;-78
2023/10/30 00:03:59;;;;;;;6.10;1.42;;;10.40;99.90;;;;;;5003363;28;20054;-77
2023/10/30 00:06:25;;;;;;;4.68;1.25;;;10.30;99.90;;;;;;5025394;28;20041;-78
2023/10/30 00:08:51;;;;;;;4.53;1.52;;;10.30;99.90;;;;;;5025865;28;20402;-77
2023/10/30 00:11:17;;;;;;;6.88;1.55;;;10.20;99.90;;;;;;5021853;28;20087;-77
2023/10/30 00:13:42;;;;;;;7.00;1.30;;;10.30;99.90;;;;;;5020515;28;20041;-77
2023/10/30 00:16:11;;;;;;;5.53;1.48;;;10.20;99.90;;;;;;4995864;28;20456;-77
2023/10/30 00:18:41;;;;;;;5.40;1.50;;;10.20;99.90;;;;;;5002632;28;20104;-78
2023/10/30 00:21:07;;;;;;;6.22;1.58;;;10.20;99.90;;;;;;4999124;28;20096;-78
2023/10/30 00:23:36;;;;;;;5.88;1.67;;;10.20;99.90;;;;;;5009698;28;20099;-78
2023/10/30 00:26:06;;;;;;;6.47;1.50;;;10.10;99.90;;;;;;5022805;28;20049;-78
2023/10/30 00:28:34;;;;;;;7.60;1.75;;;10.10;99.90;;;;;;5007194;28;20041;-78
2023/10/30 00:31:00;;;;;;;4.55;1.55;;;10.10;99.90;;;;;;5021306;28;20072;-78
2023/10/30 00:33:26;;;;;;;8.18;1.77;;;10.10;99.90;;;;;;5024801;28;20042;-78
2023/10/30 00:35:52;;;;;;;5.05;1.48;;;10.10;99.90;;;;;;5021073;28;20055;-77
2023/10/30 00:38:17;;;;;;;8.13;2.47;;;10.10;99.90;;;;;;4995677;28;20141;-77
2023/10/30 00:40:43;;;;;;;5.97;1.70;;;10.10;99.90;;;;;;5020556;28;20132;-77
2023/10/30 00:43:09;;;;;;;5.05;1.80;;;10.10;99.90;;;;;;5013663;28;20045;-78
2023/10/30 00:45:35;;;;;;;8.43;2.40;;;10.10;99.90;;;;;;5011652;28;20057;-78
2023/10/30 00:48:01;;;;;;;6.75;2.00;;;10.10;99.90;;;;;;5008742;28;20446;-77
2023/10/30 00:50:27;;;;;;;5.90;1.90;;;10.10;99.90;;;;;;5008277;28;20076;-77
2023/10/30 00:52:53;;;;;;;7.40;2.00;;;10.00;99.90;;;;;;5023204;28;20041;-77
2023/10/30 00:55:19;;;;;;;6.82;2.08;;;10.00;99.90;;;;;;5010551;28;20073;-77
2023/10/30 00:57:44;;;;;;;4.78;2.00;;;10.00;99.90;;;;;;5005927;28;20136;-77
2023/10/30 01:00:15;;;;;;;5.43;1.77;;;10.00;99.90;;;;;;5009667;28;20034;-77
2023/10/30 01:02:41;;;;;;;8.02;2.00;;;10.00;99.90;;;;;;5020667;28;20417;-77
2023/10/30 01:05:08;;;;;;;5.43;1.70;;;9.90;99.90;;;;;;5008489;28;20049;-78
2023/10/30 01:07:34;;;;;;;6.32;1.80;;;9.90;99.90;;;;;;5005719;28;20048;-77
2023/10/30 01:10:00;;;;;;;4.95;1.50;;;9.90;99.90;;;;;;5023317;28;20045;-77
2023/10/30 01:12:26;;;;;;;6.53;1.95;;;9.90;99.90;;;;;;5030864;28;20030;-78
2023/10/30 01:14:52;;;;;;;7.63;1.95;;;9.90;99.90;;;;;;5021079;28;20041;-77
2023/10/30 01:17:18;;;;;;;4.40;1.50;;;9.90;99.90;;;;;;5000368;28;20038;-78
2023/10/30 01:19:44;;;;;;;6.22;1.77;;;9.90;99.90;;;;;;5022672;28;20575;-78
2023/10/30 01:22:10;;;;;;;6.15;1.95;;;9.90;99.90;;;;;;5016844;28;20207;-78
2023/10/30 01:24:35;;;;;;;5.68;2.22;;;9.90;99.90;;;;;;5030231;28;20052;-78
2023/10/30 01:27:01;;;;;;;8.82;2.20;;;9.80;99.90;;;;;;5020115;28;20047;-78
2023/10/30 01:29:27;;;;;;;7.13;1.92;;;9.80;99.90;;;;;;5021987;28;20124;-78
2023/10/30 01:31:53;;;;;;;6.30;2.17;;;9.80;99.90;;;;;;5019954;28;20120;-78
2023/10/30 01:34:18;;;;;;;5.03;1.85;;;9.80;99.90;;;;;;5007805;28;20511;-78
2023/10/30 01:36:44;;;;;;;6.45;1.95;;;9.80;99.90;;;;;;5017273;28;20037;-79
2023/10/30 01:39:10;;;;;;;6.93;2.00;;;9.80;99.90;;;;;;5005431;28;20824;-78
2023/10/30 01:41:36;;;;;;;5.97;1.85;;;9.80;99.90;;;;;;5021592;28;20411;-78
2023/10/30 01:44:03;;;;;;;8.18;2.47;;;9.80;99.90;;;;;;5018955;28;20055;-79
2023/10/30 01:46:29;;;;;;;7.32;2.08;;;9.80;99.90;;;;;;5021497;28;20041;-78
2023/10/30 01:48:55;;;;;;;11.20;2.70;;;9.80;99.90;;;;;;5038937;28;20512;-79
2023/10/30 01:51:21;;;;;;;8.50;2.25;;;9.80;99.90;;;;;;5014808;28;20037;-78
2023/10/30 01:53:49;;;;;;;7.65;2.28;;;9.80;99.90;;;;;;5007674;28;20396;-78
2023/10/30 01:56:15;;;;;;;7.35;2.30;;;9.80;99.90;;;;;;5011720;28;20041;-78
2023/10/30 01:58:41;;;;;;;9.45;2.33;;;9.80;99.90;;;;;;5022239;28;20377;-79
2023/10/30 02:01:07;;;;;;;12.07;2.63;;;9.90;99.90;;;;;;5000285;28;20124;-78
2023/10/30 02:03:34;;;;;;;7.32;1.80;;;9.80;99.90;;;;;;5018402;28;20183;-78
2023/10/30 02:06:00;;;;;;;5.13;1.83;;;9.80;99.90;;;;;;5006268;28;20045;-79
2023/10/30 02:08:26;;;;;;;8.90;2.13;;;9.90;99.90;;;;;;5005375;28;20033;-78
2023/10/30 02:10:52;;;;;;;6.75;1.90;;;9.80;99.90;;;;;;5017119;28;20171;-79
2023/10/30 02:13:18;;;;;;;9.45;3.05;;;9.90;99.90;;;;;;5014588;28;20168;-78
2023/10/30 02:15:43;;;;;;;7.60;2.28;;;9.90;99.90;;;;;;4998625;28;20100;-77
2023/10/30 02:18:10;;;;;;;7.68;2.50;;;9.90;99.90;;;;;;5021053;28;20045;-78
2023/10/30 02:20:37;;;;;;;8.50;2.30;;;9.90;99.90;;;;;;5005092;28;20041;-77
2023/10/30 02:23:03;;;;;;;10.00;2.10;;;9.90;99.90;;;;;;5001851;28;20040;-78
2023/10/30 02:25:34;;;;;;;8.05;2.50;;;10.00;99.90;;;;;;4998579;28;20049;-78
2023/10/30 02:28:00;;;;;;;9.98;2.22;;;9.90;99.90;;;;;;5005914;28;20208;-77
2023/10/30 02:30:26;;;;;;;9.93;2.40;;;9.90;99.90;;;;;;5019376;28;20046;-78
2023/10/30 02:32:53;;;;;;;5.93;2.05;;;9.90;99.90;;;;;;5006743;28;20049;-77
2023/10/30 02:35:19;;;;;;;7.07;2.47;;;9.90;99.90;;;;;;5006060;28;20124;-77
2023/10/30 02:37:45;;;;;;;10.73;2.88;;;9.90;99.90;;;;;;5015994;28;20053;-77
2023/10/30 02:40:12;;;;;;;10.07;2.15;;;9.90;99.90;;;;;;5004743;28;20038;-77
2023/10/30 02:42:38;;;;;;;7.57;2.70;;;9.90;99.90;;;;;;5006352;28;20053;-77
2023/10/30 02:45:05;;;;;;;9.70;2.38;;;9.80;99.90;;;;;;5021627;28;20106;-77
2023/10/30 02:47:34;;;;;;;8.73;2.30;;;9.80;99.90;;;;;;5016634;28;20040;-77
2023/10/30 02:50:01;;;;;;;9.43;2.90;;;9.80;99.90;;;;;;5004324;28;20053;-77
2023/10/30 02:52:29;;;;;;;12.77;3.22;;;9.80;99.90;;;;;;5021829;28;20367;-78
2023/10/30 02:54:54;;;;;;;13.65;2.42;;;9.80;99.90;;;;;;5020851;28;20580;-77
2023/10/30 02:57:20;;;;;;;8.68;2.78;;;9.80;99.90;;;;;;5013492;28;20136;-77
2023/10/30 02:59:46;;;;;;;9.80;2.53;;;9.80;99.90;;;;;;5017369;28;20067;-77
2023/10/30 03:02:12;;;;;;;8.35;2.60;;;9.70;99.90;;;;;;5005781;28;20132;-78
2023/10/30 03:04:38;;;;;;;8.85;2.30;;;9.70;99.90;;;;;;5003660;28;20089;-77
2023/10/30 03:07:07;;;;;;;10.82;2.58;;;9.70;99.90;;;;;;5008153;28;20046;-77
2023/10/30 03:09:34;;;;;;;10.98;2.40;;;9.70;99.90;;;;;;4997255;28;20046;-77
2023/10/30 03:12:00;;;;;;;9.13;2.55;;;9.70;99.90;;;;;;5016941;28;20464;-77
2023/10/30 03:14:26;;;;;;;11.10;2.63;;;9.70;99.90;;;;;;5021933;28;20042;-77
2023/10/30 03:16:53;;;;;;;14.60;2.75;;;9.70;99.90;;;;;;5011756;28;20095;-77
2023/10/30 03:19:19;;;;;;;12.07;2.60;;;9.70;99.90;;;;;;5017575;28;20583;-77
2023/10/30 03:21:44;;;;;;;10.95;3.20;;;9.70;99.90;;;;;;4996800;28;20320;-78
2023/10/30 03:24:10;;;;;;;14.95;2.70;;;9.70;99.90;;;;;;5019283;28;20040;-78
2023/10/30 03:26:36;;;;;;;8.77;2.55;;;9.70;99.90;;;;;;5014606;28;20056;-77
2023/10/30 03:29:02;;;;;;;9.95;2.40;;;9.70;99.90;;;;;;5006850;28;20042;-77
2023/10/30 03:31:28;;;;;;;11.85;2.58;;;9.70;99.90;;;;;;5002367;28;20037;-77
2023/10/30 03:33:54;;;;;;;10.15;3.00;;;9.70;99.90;;;;;;5009326;28;20053;-81
2023/10/30 03:36:25;;;;;;;12.18;3.10;;;9.70;99.90;;;;;;5035210;28;20438;-83
2023/10/30 03:38:51;;;;;;;8.75;2.53;;;9.70;99.90;;;;;;5007706;28;20139;-82
2023/10/30 03:41:18;;;;;;;8.57;2.42;;;9.70;99.90;;;;;;5021201;28;20130;-82
2023/10/30 03:43:43;;;;;;;9.82;2.53;;;9.80;99.90;;;;;;5019546;28;20482;-82
2023/10/30 03:46:12;;;;;;;8.43;2.83;;;9.70;99.90;;;;;;5006896;28;20045;-81
2023/10/30 03:48:38;;;;;;;10.70;2.65;;;9.70;99.90;;;;;;5027526;28;20445;-82
2023/10/30 03:51:05;;;;;;;9.70;2.20;;;9.80;99.90;;;;;;5008238;28;20045;-82
2023/10/30 03:53:31;;;;;;;9.68;2.58;;;9.80;99.90;;;;;;5015863;28;20046;-82
2023/10/30 03:55:57;;;;;;;9.45;2.70;;;9.70;99.90;;;;;;5016157;28;20050;-81
2023/10/30 03:58:23;;;;;;;11.27;2.78;;;9.80;99.90;;;;;;5014716;28;20041;-82
2023/10/30 04:00:49;;;;;;;11.82;2.92;;;9.70;99.90;;;;;;5028186;28;20073;-82
2023/10/30 04:03:15;;;;;;;11.05;2.67;;;9.80;99.90;;;;;;5016593;28;20099;-81
2023/10/30 04:05:41;;;;;;;9.02;2.40;;;9.80;99.90;;;;;;5038304;28;20052;-82
2023/10/30 04:08:07;;;;;;;12.23;3.03;;;9.70;99.90;;;;;;5020519;28;20176;-81
2023/10/30 04:10:32;;;;;;;9.38;2.30;;;9.80;99.90;;;;;;4994811;28;20041;-82
2023/10/30 04:12:58;;;;;;;9.52;2.55;;;9.80;99.90;;;;;;4999318;28;20041;-84
2023/10/30 04:15:24;;;;;;;9.05;2.65;;;9.80;99.90;;;;;;4998757;28;20041;-82
2023/10/30 04:17:50;;;;;;;10.55;2.45;;;9.80;99.90;;;;;;5002249;28;20454;-82
2023/10/30 04:20:16;;;;;;;12.07;2.70;;;9.80;99.90;;;;;;5005883;28;20207;-81
2023/10/30 04:22:42;;;;;;;15.15;3.25;;;9.80;99.90;;;;;;5005601;28;20045;-81
2023/10/30 04:25:08;;;;;;;9.68;2.42;;;9.80;99.90;;;;;;5015752;28;20041;-81
2023/10/30 04:27:34;;;;;;;11.95;2.38;;;9.80;99.90;;;;;;5019701;28;20061;-82
2023/10/30 04:30:01;;;;;;;9.70;2.33;;;9.80;99.90;;;;;;5019547;28;20042;-81
2023/10/30 04:32:27;;;;;;;9.85;2.30;;;9.80;99.90;;;;;;5007564;28;20045;-81
2023/10/30 04:34:52;;;;;;;8.25;1.92;;;9.80;99.90;;;;;;5007177;28;20328;-81
2023/10/30 04:37:19;;;;;;;12.63;2.95;;;9.80;99.90;;;;;;5037273;28;20041;-81
2023/10/30 04:39:45;;;;;;;11.80;2.70;;;9.80;99.90;;;;;;5023243;28;20444;-80
2023/10/30 04:42:11;;;;;;;11.18;3.22;;;9.80;99.90;;;;;;5022882;28;20504;-81
2023/10/30 04:44:37;;;;;;;10.52;2.65;;;9.80;99.90;;;;;;5036777;28;20053;-82
2023/10/30 04:47:07;;;;;;;8.35;2.47;;;9.80;99.90;;;;;;5008344;28;20123;-81
2023/10/30 04:49:38;;;;;;;12.48;2.58;;;9.80;99.90;;;;;;5016212;28;20053;-81
2023/10/30 04:52:06;;;;;;;12.50;2.90;;;9.70;99.90;;;;;;5006806;28;20388;-82
2023/10/30 04:54:32;;;;;;;11.43;2.30;;;9.80;99.90;;;;;;5024136;28;20388;-81
2023/10/30 04:56:58;;;;;;;14.45;3.03;;;9.70;99.90;;;;;;5015950;28;20042;-81
2023/10/30 04:59:24;;;;;;;11.50;2.45;;;9.70;99.90;;;;;;5017968;28;20052;-81
2023/10/30 05:01:49;;;;;;;8.73;2.38;;;9.70;99.90;;;;;;5002430;28;20073;-83
2023/10/30 05:04:17;;;;;;;11.45;2.50;;;9.70;99.90;;;;;;5011094;28;20433;-82
2023/10/30 05:06:43;;;;;;;10.45;2.50;;;9.70;99.90;;;;;;5015339;28;20512;-81
2023/10/30 05:09:09;;;;;;;7.85;2.65;;;9.70;99.90;;;;;;5012132;28;20041;-81
2023/10/30 05:11:38;;;;;;;14.93;2.55;;;9.70;99.90;;;;;;5015995;28;20077;-81
2023/10/30 05:14:05;;;;;;;9.00;2.30;;;9.60;99.90;;;;;;4999693;28;20038;-82
2023/10/30 05:16:30;;;;;;;11.75;3.17;;;9.60;99.90;;;;;;4998260;28;20065;-82
2023/10/30 05:18:56;;;;;;;14.20;3.50;;;9.60;99.90;;;;;;5002973;28;20496;-82
2023/10/30 05:21:22;;;;;;;14.50;3.13;;;9.70;99.90;;;;;;5008649;28;20133;-82
2023/10/30 05:23:49;;;;;;;12.02;2.55;;;9.70;99.90;;;;;;5009733;28;20042;-83
2023/10/30 05:26:15;;;;;;;12.20;2.78;;;9.70;99.90;;;;;;5008888;28;20050;-81
2023/10/30 05:28:41;;;;;;;10.73;2.83;;;9.60;99.90;;;;;;5021766;28;20096;-81
2023/10/30 05:31:07;;;;;;;12.35;3.17;;;9.60;99.90;;;;;;5007405;28;20073;-81
2023/10/30 05:33:34;;;;;;;13.65;3.47;;;9.60;99.90;;;;;;5023199;28;20136;-81
2023/10/30 05:36:02;;;;;;;13.13;3.13;;;9.60;99.90;;;;;;4999291;28;20048;-82
2023/10/30 05:38:27;;;;;;;12.57;2.95;;;9.60;99.90;;;;;;5018771;28;20049;-82
2023/10/30 05:40:53;;;;;;;9.32;2.22;;;9.60;99.90;;;;;;5008278;28;20336;-82
2023/10/30 05:43:19;;;;;;;12.60;2.90;;;9.60;99.90;;;;;;5020297;28;20038;-78
2023/10/30 05:45:49;;;;;;;10.05;2.53;;;9.60;99.90;;;;;;5000205;28;20510;-77
2023/10/30 05:48:15;;;;;;;11.45;2.58;;;9.60;99.90;;;;;;5016095;28;20125;-77
2023/10/30 05:50:42;;;;;;;13.30;3.67;;;9.60;99.90;;;;;;5024437;28;20037;-77
2023/10/30 05:53:08;;;;;;;12.60;2.72;;;9.60;99.90;;;;;;5009791;28;20076;-78
2023/10/30 05:55:33;;;;;;;13.77;2.92;;;9.60;99.90;;;;;;5008480;28;20049;-78
2023/10/30 05:57:59;;;;;;;12.98;3.05;;;9.60;99.90;;;;;;5014860;28;20041;-77
2023/10/30 06:00:25;;;;;;;8.00;2.47;;;9.60;99.90;;;;;;5018416;28;20037;-77
2023/10/30 06:02:51;;;;;;;11.60;2.50;;;9.60;99.90;;;;;;5015107;28;21554;-78
2023/10/30 06:05:18;;;;;;;14.00;3.35;;;9.60;99.90;;;;;;4997938;28;20038;-77
2023/10/30 06:07:44;;;;;;;11.20;2.83;;;9.60;99.90;;;;;;5016915;28;20057;-77
2023/10/30 06:10:11;;;;;;;12.02;2.80;;;9.70;99.90;;;;;;5017414;28;20057;-77
2023/10/30 06:12:40;;;;;;;11.23;2.40;;;9.60;99.90;;;;;;5020162;28;20049;-77
2023/10/30 06:15:07;;;;;;;10.32;2.83;;;9.60;99.90;;;;;;5035144;28;20041;-77
2023/10/30 06:17:36;;;;;;;9.80;2.67;;;9.70;99.90;;;;;;5020494;28;20132;-77
2023/10/30 06:20:03;;;;;;;13.68;3.35;;;9.60;99.90;;;;;;5019802;28;20547;-77
2023/10/30 06:22:29;;;;;;;12.60;2.75;;;9.60;99.90;;;;;;5003081;28;20049;-77
2023/10/30 06:24:55;;;;;;;12.27;3.13;;;9.70;99.90;;;;;;5019337;28;20411;-76
2023/10/30 06:27:21;;;;;;;10.13;2.55;;;9.70;99.90;;;;;;5005653;28;20034;-77
2023/10/30 06:29:46;;;;;;;10.52;3.30;;;9.70;99.90;;;;;;5014832;28;20049;-77
2023/10/30 06:32:12;;;;;;;12.80;2.78;;;9.70;99.90;;;;;;5021346;28;20037;-77
2023/10/30 06:34:38;;;;;;;13.20;2.92;;;9.70;99.90;;;;;;5005388;28;20057;-77
2023/10/30 06:37:05;;;;;;;13.80;3.45;;;9.70;99.90;;;;;;5011540;28;20076;-77
2023/10/30 06:39:31;;;;;;;9.35;2.90;;;9.80;99.90;;;;;;5005255;28;20041;-77
2023/10/30 06:41:57;;;;;;;13.27;3.33;;;9.80;99.90;;;;;;5014028;28;20493;-76
2023/10/30 06:44:23;;;;;;;9.10;2.70;;;9.80;99.90;;;;;;5017855;28;20120;-77
2023/10/30 06:46:50;;;;;;;12.57;3.42;;;9.80;99.90;;;;;;4998224;28;20129;-77
2023/10/30 06:49:20;;;;;;;17.08;2.75;;;9.80;99.90;;;;;;5004489;28;20076;-77
2023/10/30 06:51:45;;;;;;;16.05;3.50;;;9.90;99.90;;;;;;4994827;28;20049;-77
2023/10/30 06:54:12;;;;;;;10.85;2.65;;;10.00;99.90;;;;;;5003939;28;20365;-77
2023/10/30 06:56:41;;;;;;;12.05;3.40;;;10.00;99.90;;;;;;5016397;28;20496;-76
2023/10/30 06:59:12;;;;;;;12.07;3.67;;;10.00;99.90;;;;;;5005452;28;20045;-77
2023/10/30 07:01:48;;;;;;;11.68;2.97;;;10.00;99.90;;;;;;4997918;28;20088;-76
2023/10/30 07:04:15;;;;;;;11.18;3.15;;;10.10;99.90;;;;;;5022794;28;20065;-77
2023/10/30 07:06:43;;;;;;;10.25;2.88;;;10.10;99.90;;;;;;5003848;28;20045;-78
2023/10/30 07:09:10;;;;;;;12.40;2.65;;;10.20;99.90;;;;;;5005303;28;20439;-76
2023/10/30 07:11:37;;;;;;;11.93;3.03;;;10.20;99.90;;;;;;5006198;28;20041;-77
2023/10/30 07:14:03;;;;;;;13.85;3.88;;;10.30;99.90;;;;;;5024222;28;20055;-76
2023/10/30 07:16:34;;;;;;;14.05;3.67;;;10.30;99.90;;;;;;5023718;28;20500;-77
2023/10/30 07:19:00;;;;;;;;;;;10.30;99.90;;;;;;5009523;28;20135;-77
2023/10/30 07:21:27;;;;;;;11.10;3.03;;;10.30;99.90;;;;;;5019515;28;19964;-77
2023/10/30 07:23:53;;;;;;;9.80;2.53;;;10.30;99.90;;;;;;5010935;28;20140;-77
2023/10/30 07:26:21;;;;;;;17.08;3.40;;;10.30;99.90;;;;;;4997231;28;20033;-77
2023/10/30 07:28:51;;;;;;;11.98;2.90;;;10.40;99.90;;;;;;5000959;28;20499;-77
2023/10/30 07:31:18;;;;;;;10.75;2.88;;;10.40;99.90;;;;;;5019567;28;20038;-77
2023/10/30 07:33:45;;;;;;;10.13;2.53;;;10.40;99.90;;;;;;5024604;28;20048;-78
2023/10/30 07:36:11;;;;;;;10.90;2.67;;;10.40;99.90;;;;;;5001027;28;20091;-77
2023/10/30 07:38:37;;;;;;;11.60;2.92;;;10.40;99.90;;;;;;5001061;28;20058;-77
2023/10/30 07:41:07;;;;;;;10.90;2.60;;;10.40;99.90;;;;;;5007561;28;21044;-78
2023/10/30 07:43:34;;;;;;;11.10;3.05;;;10.50;99.90;;;;;;5003852;28;20049;-78
2023/10/30 07:46:00;;;;;;;12.93;3.25;;;10.50;99.90;;;;;;5008173;28;20073;-78
2023/10/30 07:48:26;;;;;;;12.70;3.30;;;10.50;99.90;;;;;;5015487;28;20897;-77
2023/10/30 07:50:53;;;;;;;13.73;2.92;;;10.50;99.90;;;;;;5018645;28;20044;-78
2023/10/30 07:53:18;;;;;;;12.02;2.70;;;10.50;99.90;;;;;;5007933;28;20092;-78
2023/10/30 07:55:47;;;;;;;11.07;3.10;;;10.50;99.90;;;;;;5023869;28;20638;-77
2023/10/30 07:58:14;;;;;;;8.23;2.38;;;10.60;99.90;;;;;;5008256;28;20037;-78
2023/10/30 08:00:40;;;;;;;15.02;3.10;;;10.60;99.90;;;;;;5006247;28;20049;-77
2023/10/30 08:03:06;;;;;;;18.20;3.53;;;10.60;99.90;;;;;;5020270;28;20416;-77
2023/10/30 08:05:32;;;;;;;10.73;3.50;;;10.70;99.90;;;;;;5019304;28;20055;-78
2023/10/30 08:07:58;;;;;;;12.45;2.85;;;10.70;99.90;;;;;;5022692;28;20373;-77
2023/10/30 08:10:24;;;;;;;10.43;2.75;;;10.70;99.90;;;;;;5005031;28;20395;-77
2023/10/30 08:12:51;;;;;;;17.60;3.58;;;10.80;99.90;;;;;;5022346;28;20049;-78
2023/10/30 08:15:16;;;;;;;14.57;3.30;;;10.80;99.90;;;;;;5037285;28;20393;-78
2023/10/30 08:17:42;;;;;;;12.55;2.78;;;10.80;99.90;;;;;;5025229;28;20045;-77
2023/10/30 08:20:09;;;;;;;16.33;3.50;;;10.90;99.90;;;;;;5021377;28;20108;-78
2023/10/30 08:22:36;;;;;;;12.98;2.97;;;10.90;99.90;;;;;;5024891;28;20091;-78
2023/10/30 08:25:02;;;;;;;12.38;3.40;;;10.90;99.90;;;;;;5022829;28;20120;-77
2023/10/30 08:27:29;;;;;;;10.75;2.70;;;11.00;99.90;;;;;;5041645;28;20515;-77
2023/10/30 08:29:55;;;;;;;11.77;3.17;;;11.10;99.90;;;;;;5022475;28;20135;-79
2023/10/30 08:32:21;;;;;;;12.95;3.00;;;11.10;99.90;;;;;;5023147;28;20452;-77
2023/10/30 08:34:46;;;;;;;12.38;2.70;;;11.20;99.90;;;;;;5022622;28;20045;-77
2023/10/30 08:37:12;;;;;;;11.68;3.20;;;11.20;99.90;;;;;;5021439;28;20049;-77
2023/10/30 08:39:38;;;;;;;11.73;3.50;;;11.30;99.90;;;;;;5021079;28;20041;-77
2023/10/30 08:42:04;;;;;;;12.00;3.53;;;11.30;99.90;;;;;;5023654;28;20045;-77
2023/10/30 08:44:31;;;;;;;13.02;3.53;;;11.40;99.90;;;;;;5004593;28;20451;-79
2023/10/30 08:46:58;;;;;;;11.60;3.55;;;11.40;99.90;;;;;;5022782;28;20075;-77
2023/10/30 08:49:24;;;;;;;11.35;3.17;;;11.60;99.90;;;;;;5002585;28;20534;-77
2023/10/30 08:51:50;;;;;;;13.25;2.80;;;11.60;99.90;;;;;;5006804;28;20054;-78
2023/10/30 08:54:15;;;;;;;10.90;2.78;;;11.60;99.90;;;;;;5019606;28;20041;-79
2023/10/30 08:56:42;;;;;;;9.15;2.67;;;11.70;99.90;;;;;;5016356;28;20249;-77
2023/10/30 08:59:08;;;;;;;12.23;2.45;;;11.70;99.90;;;;;;5007869;28;20072;-78
2023/10/30 09:01:34;;;;;;;13.20;3.08;;;11.80;99.90;;;;;;5009912;28;20441;-78
2023/10/30 09:04:00;;;;;;;17.25;3.95;;;11.80;99.90;;;;;;5019418;28;20049;-78
2023/10/30 09:06:29;;;;;;;10.82;2.97;;;11.90;99.90;;;;;;5003062;28;20045;-78
2023/10/30 09:08:55;;;;;;;8.20;2.40;;;11.90;99.90;;;;;;5034840;28;20460;-78
2023/10/30 09:11:22;;;;;;;13.23;2.80;;;12.00;99.90;;;;;;5021069;28;20042;-78
2023/10/30 09:13:47;;;;;;;14.32;2.95;;;12.10;99.90;;;;;;5002237;28;20537;-78
2023/10/30 09:16:13;;;;;;;11.57;2.60;;;12.20;99.90;;;;;;5017188;28;20037;-78
2023/10/30 09:18:39;;;;;;;10.30;2.53;;;12.20;99.90;;;;;;5003793;28;20316;-78
2023/10/30 09:21:05;;;;;;;13.60;3.45;;;12.30;99.90;;;;;;5016653;28;20103;-79
2023/10/30 09:23:31;;;;;;;12.95;3.55;;;12.30;99.90;;;;;;5034422;28;20042;-77
2023/10/30 09:25:56;;;;;;;13.35;3.30;;;12.40;99.90;;;;;;5018867;28;20628;-79
2023/10/30 09:28:22;;;;;;;11.73;3.22;;;12.50;99.90;;;;;;5004409;28;20052;-79
2023/10/30 09:30:49;;;;;;;11.30;3.17;;;12.50;99.90;;;;;;5036462;28;20436;-80
2023/10/30 09:33:15;;;;;;;11.88;2.90;;;12.60;99.90;;;;;;5017128;28;20543;-79
2023/10/30 09:35:42;;;;;;;13.48;3.00;;;12.70;99.90;;;;;;5009153;28;20492;-79
2023/10/30 09:38:11;;;;;;;16.23;3.78;;;12.80;99.90;;;;;;5035737;28;20489;-79
2023/10/30 09:40:37;;;;;;;13.93;3.00;;;12.80;99.90;;;;;;5008161;28;20547;-79
2023/10/30 09:43:07;;;;;;;9.77;3.35;;;12.80;99.90;;;;;;5029905;28;20065;-79
2023/10/30 09:45:45;;;;;;;8.27;2.35;;;12.90;99.90;;;;;;5099703;27;20652;-79
2023/10/30 09:48:12;;;;;;;11.77;2.70;;;12.90;99.90;;;;;;5091924;28;20058;-78
2023/10/30 09:50:39;;;;;;;11.50;3.13;;;12.90;99.90;;;;;;5078404;28;20532;-79
2023/10/30 09:53:06;;;;;;;10.82;2.80;;;12.90;99.90;;;;;;5099879;28;20047;-78
2023/10/30 09:55:32;;;;;;;11.43;2.50;;;12.90;99.90;;;;;;5095386;28;20036;-79
2023/10/30 09:57:59;;;;;;;9.00;2.40;;;12.90;99.90;;;;;;5081618;28;20428;-78
2023/10/30 10:00:25;;;;;;;12.70;3.00;;;12.90;99.90;;;;;;5083084;28;20126;-78
2023/10/30 10:02:51;;;;;;;12.27;2.80;;;12.90;99.90;;;;;;5092377;28;20573;-79
2023/10/30 10:05:18;;;;;;;12.13;3.13;;;12.80;99.90;;;;;;5097191;28;20040;-77
2023/10/30 10:07:44;;;;;;;11.88;2.65;;;12.80;99.90;;;;;;5096168;28;20390;-79
2023/10/30 10:10:10;;;;;;;9.95;2.50;;;12.70;99.90;;;;;;5082930;28;20032;-78
2023/10/30 10:12:36;;;;;;;12.10;3.17;;;12.60;99.90;;;;;;5100708;28;20044;-78
2023/10/30 10:15:06;;;;;;;12.77;2.70;;;12.60;99.90;;;;;;5082386;28;20044;-78
2023/10/30 10:17:42;;;;;;;;;;;12.50;99.90;;;;;;5097768;28;20047;-78
2023/10/30 10:20:08;;;;;;;7.85;2.67;;;12.50;99.90;;;;;;5109621;28;19934;-78
2023/10/30 10:22:34;;;;;;;10.48;2.60;;;12.50;99.90;;;;;;5076181;28;20047;-77
2023/10/30 10:25:00;;;;;;;9.70;3.13;;;12.50;99.90;;;;;;5082916;28;20097;-79
2023/10/30 10:27:27;;;;;;;11.10;3.08;;;12.50;99.90;;;;;;5082629;28;20046;-78
2023/10/30 10:29:54;;;;;;;12.85;2.97;;;12.60;99.90;;;;;;5089904;28;20059;-78
2023/10/30 10:32:25;;;;;;;16.50;3.30;;;12.70;99.90;;;;;;5100551;28;20036;-78
2023/10/30 10:34:52;;;;;;;9.27;2.85;;;12.80;99.90;;;;;;5093301;28;20567;-78
2023/10/30 10:37:18;;;;;;;11.95;2.83;;;12.80;99.90;;;;;;5085924;27;20039;-78
2023/10/30 10:39:53;;;;;;;15.60;2.92;;;12.90;99.90;;;;;;5075483;28;20089;-79
2023/10/30 10:42:24;;;;;;;13.00;2.65;;;12.90;99.90;;;;;;5094798;28;20437;-79
2023/10/30 10:44:52;;;;;;;11.68;2.65;;;13.00;99.90;;;;;;5094375;28;20039;-79
2023/10/30 10:47:19;;;;;;;9.27;2.35;;;13.00;99.90;;;;;;5100363;28;20055;-78
2023/10/30 10:49:46;;;;;;;12.15;3.00;;;13.10;99.90;;;;;;5095374;28;20035;-78
2023/10/30 10:52:14;;;;;;;9.90;2.65;;;13.10;99.90;;;;;;5079209;28;20056;-79
2023/10/30 10:54:52;;;;;;;12.10;2.88;;;13.20;99.90;;;;;;5093837;28;20071;-80
2023/10/30 10:57:22;;;;;;;13.18;3.22;;;13.20;99.90;;;;;;5069238;28;20502;-78
2023/10/30 10:59:58;;;;;;;9.75;2.45;;;13.20;99.90;;;;;;5079686;28;20036;-78
2023/10/30 11:02:31;;;;;;;12.00;2.95;;;13.30;99.90;;;;;;5051259;28;20569;-77
2023/10/30 11:04:58;;;;;;;14.63;3.20;;;13.40;99.90;;;;;;5077767;28;20541;-80
2023/10/30 11:07:31;;;;;;;11.82;3.60;;;13.50;99.90;;;;;;5096046;28;20557;-78
2023/10/30 11:10:03;;;;;;;11.38;3.30;;;13.60;99.90;;;;;;5068986;28;20146;-80
2023/10/30 11:13:08;;;;;;;14.82;2.55;;;13.70;99.90;;;;;;5099986;27;20058;-79
2023/10/30 11:16:05;;;;;;;10.48;2.80;;;13.70;99.90;;;;;;5069908;28;20043;-79
2023/10/30 11:18:33;;;;;;;10.57;2.67;;;13.80;99.90;;;;;;5037741;28;20230;-79
2023/10/30 11:21:13;;;;;;;14.18;2.88;;;13.80;99.90;;;;;;5071880;28;20047;-78
2023/10/30 11:23:46;;;;;;;13.85;3.17;;;13.70;99.90;;;;;;5064425;28;20376;-79
2023/10/30 11:26:30;;;;;;;10.65;2.47;;;13.70;99.90;;;;;;5066212;28;20059;-78
2023/10/30 11:29:16;;;;;;;16.40;3.67;;;13.80;99.90;;;;;;5067379;28;20062;-80
2023/10/30 11:32:05;;;;;;;12.68;2.78;;;13.80;99.90;;;;;;5080774;28;20201;-80
2023/10/30 11:34:40;;;;;;;9.52;2.58;;;13.80;99.90;;;;;;5093262;28;20071;-78
2023/10/30 11:37:11;;;;;;;11.45;2.75;;;13.70;99.90;;;;;;5084034;28;20059;-80
2023/10/30 11:39:40;;;;;;;;;;;13.60;99.90;;;;;;5067735;28;20127;-79
2023/10/30 11:42:32;;;;;;;10.32;2.75;;;13.60;99.90;;;;;;5085557;28;19920;-79
2023/10/30 11:45:28;;;;;;;13.43;3.22;;;13.60;99.90;;;;;;5085671;28;20119;-79
2023/10/30 11:48:05;;;;;;;12.65;2.75;;;13.70;99.90;;;;;;5063240;28;20816;-78
2023/10/30 11:50:42;;;;;;;10.60;2.83;;;13.70;99.90;;;;;;5065430;28;20509;-80
2023/10/30 11:53:16;;;;;;;12.57;3.05;;;13.70;99.90;;;;;;5081354;28;20052;-78
2023/10/30 11:55:42;;;;;;;11.57;2.85;;;13.80;99.90;;;;;;5080750;28;20060;-79
2023/10/30 11:58:10;;;;;;;10.38;2.70;;;13.70;99.90;;;;;;5074613;28;20071;-79
2023/10/30 12:00:44;;;;;;;13.02;3.17;;;13.80;99.90;;;;;;5064515;28;20068;-78
2023/10/30 12:03:11;;;;;;;10.07;2.60;;;13.70;99.90;;;;;;5071585;28;20495;-79
2023/10/30 12:05:37;;;;;;;6.97;2.85;;;13.70;99.90;;;;;;5075577;28;20119;-79
2023/10/30 12:08:04;;;;;;;11.98;3.20;;;13.70;99.90;;;;;;5074388;28;20147;-79
2023/10/30 12:10:31;;;;;;;9.75;2.63;;;13.60;99.90;;;;;;5062604;28;20518;-78
2023/10/30 12:12:57;;;;;;;12.93;3.33;;;13.60;99.90;;;;;;5066389;28;20139;-79
2023/10/30 12:15:25;;;;;;;13.45;3.10;;;13.60;99.90;;;;;;5064484;28;20116;-80
2023/10/30 12:17:51;;;;;;;9.20;2.55;;;13.60;99.90;;;;;;5076611;28;20437;-79
2023/10/30 12:20:17;;;;;;;12.07;2.95;;;13.70;99.90;;;;;;5074759;28;20052;-80
2023/10/30 12:22:46;;;;;;;12.82;3.13;;;13.60;99.90;;;;;;5055575;28;20042;-79
2023/10/30 12:25:16;;;;;;;11.27;3.30;;;13.60;99.90;;;;;;5078027;28;20063;-78
2023/10/30 12:27:43;;;;;;;9.40;3.05;;;13.60;99.90;;;;;;5073740;28;20429;-79
2023/10/30 12:30:10;;;;;;;15.27;3.30;;;13.70;99.90;;;;;;5071806;28;20506;-76
2023/10/30 12:32:36;;;;;;;13.02;3.38;;;13.60;99.90;;;;;;5072327;28;20143;-77
2023/10/30 12:35:28;;;;;;;11.52;2.80;;;13.70;99.90;;;;;;5080144;28;20672;-77
2023/10/30 12:37:54;;;;;;;15.10;3.20;;;13.60;99.90;;;;;;5061752;28;20060;-79
2023/10/30 12:40:20;;;;;;;12.50;3.40;;;13.70;99.90;;;;;;5064813;28;20089;-80
2023/10/30 12:42:48;;;;;;;10.98;2.97;;;13.70;99.90;;;;;;5072769;28;20047;-79
2023/10/30 12:45:14;;;;;;;11.60;3.03;;;13.70;99.90;;;;;;5055933;28;20036;-79
2023/10/30 12:47:41;;;;;;;8.93;3.08;;;13.70;99.90;;;;;;5069267;28;20051;-80